sensor_id;sensor_type;location;lat;lon;timestamp;temperature;humidity
9033;DHT22;4551;53.164;8.210;2022-09-06T00:00:18;20.70;99.90
9033;DHT22;4551;53.164;8.210;2022-09-06T00:02:46;20.70;99.90
9033;DHT22;4551;53.164;8.210;2022-09-06T00:05:16;20.40;99.90
9033;DHT22;4551;53.164;8.210;2022-09-06T00:07:44;20.60;99.90
9033;DHT22;4551;53.164;8.210;2022-09-06T00:10:12;20.60;99.90
9033;DHT22;4551;53.164;8.210;2022-09-06T00:12:41;20.60;99.90
9033;DHT22;4551;53.164;8.210;2022-09-06T00:15:09;20.60;99.90
9033;DHT22;4551;53.164;8.210;2022-09-06T00:17:38;20.60;99.90
9033;DHT22;4551;53.164;8.210;2022-09-06T00:20:06;20.50;99.90
9033;DHT22;4551;53.164;8.210;2022-09-06T00:22:37;20.50;99.90
9033;DHT22;4551;53.164;8.210;2022-09-06T00:25:06;20.50;99.90
9033;DHT22;4551;53.164;8.210;2022-09-06T00:27:35;20.40;99.90
9033;DHT22;4551;53.164;8.210;2022-09-06T00:30:03;20.40;99.90
9033;DHT22;4551;53.164;8.210;2022-09-06T00:32:32;20.40;99.90
9033;DHT22;4551;53.164;8.210;2022-09-06T00:35:00;20.40;99.90
9033;DHT22;4551;53.164;8.210;2022-09-06T00:37:28;20.30;99.90
9033;DHT22;4551;53.164;8.210;2022-09-06T00:39:58;20.30;99.90
9033;DHT22;4551;53.164;8.210;2022-09-06T00:42:26;20.30;99.90
9033;DHT22;4551;53.164;8.210;2022-09-06T00:44:54;20.20;99.90
9033;DHT22;4551;53.164;8.210;2022-09-06T00:47:23;20.20;99.90
9033;DHT22;4551;53.164;8.210;2022-09-06T00:49:56;20.20;99.90
9033;DHT22;4551;53.164;8.210;2022-09-06T00:52:26;20.20;99.90
9033;DHT22;4551;53.164;8.210;2022-09-06T00:54:54;20.20;99.90
9033;DHT22;4551;53.164;8.210;2022-09-06T00:57:25;20.10;99.90
9033;DHT22;4551;53.164;8.210;2022-09-06T00:59:55;20.20;99.90
9033;DHT22;4551;53.164;8.210;2022-09-06T01:02:23;20.10;99.90
9033;DHT22;4551;53.164;8.210;2022-09-06T01:04:54;20.10;99.90
9033;DHT22;4551;53.164;8.210;2022-09-06T01:07:33;20.00;99.90
9033;DHT22;4551;53.164;8.210;2022-09-06T01:10:16;20.00;99.90
9033;DHT22;4551;53.164;8.210;2022-09-06T01:12:52;20.00;99.90
9033;DHT22;4551;53.164;8.210;2022-09-06T01:15:34;20.00;99.90
9033;DHT22;4551;53.164;8.210;2022-09-06T01:18:13;20.00;99.90
9033;DHT22;4551;53.164;8.210;2022-09-06T01:20:57;19.90;99.90
9033;DHT22;4551;53.164;8.210;2022-09-06T01:23:54;20.10;99.90
9033;DHT22;4551;53.164;8.210;2022-09-06T01:27:09;19.80;99.90
9033;DHT22;4551;53.164;8.210;2022-09-06T01:29:44;19.90;99.90
9033;DHT22;4551;53.164;8.210;2022-09-06T01:32:22;19.80;99.90
9033;DHT22;4551;53.164;8.210;2022-09-06T01:34:54;19.70;99.90
9033;DHT22;4551;53.164;8.210;2022-09-06T01:37:25;19.70;99.90
9033;DHT22;4551;53.164;8.210;2022-09-06T01:39:53;19.70;99.90
9033;DHT22;4551;53.164;8.210;2022-09-06T01:42:25;19.70;99.90
9033;DHT22;4551;53.164;8.210;2022-09-06T01:44:59;19.70;99.90
9033;DHT22;4551;53.164;8.210;2022-09-06T01:47:37;19.70;99.90
9033;DHT22;4551;53.164;8.210;2022-09-06T01:50:42;19.60;99.90
9033;DHT22;4551;53.164;8.210;2022-09-06T01:53:45;19.60;99.90
9033;DHT22;4551;53.164;8.210;2022-09-06T01:56:24;19.50;99.90
9033;DHT22;4551;53.164;8.210;2022-09-06T01:59:20;19.50;99.90
9033;DHT22;4551;53.164;8.210;2022-09-06T02:02:01;19.50;99.90
9033;DHT22;4551;53.164;8.210;2022-09-06T02:04:37;19.40;99.90
9033;DHT22;4551;53.164;8.210;2022-09-06T02:07:12;19.40;99.90
9033;DHT22;4551;53.164;8.210;2022-09-06T02:09:44;19.40;99.90
9033;DHT22;4551;53.164;8.210;2022-09-06T02:12:17;19.40;99.90
9033;DHT22;4551;53.164;8.210;2022-09-06T02:14:50;19.30;99.90
9033;DHT22;4551;53.164;8.210;2022-09-06T02:17:26;19.40;99.90
9033;DHT22;4551;53.164;8.210;2022-09-06T02:20:00;19.30;99.90
9033;DHT22;4551;53.164;8.210;2022-09-06T02:22:32;19.30;99.90
9033;DHT22;4551;53.164;8.210;2022-09-06T02:25:04;19.30;99.90
9033;DHT22;4551;53.164;8.210;2022-09-06T02:27:34;19.20;99.90
9033;DHT22;4551;53.164;8.210;2022-09-06T02:30:04;19.20;99.90
9033;DHT22;4551;53.164;8.210;2022-09-06T02:32:38;19.20;99.90
9033;DHT22;4551;53.164;8.210;2022-09-06T02:35:11;19.20;99.90
9033;DHT22;4551;53.164;8.210;2022-09-06T02:37:40;19.10;99.90
9033;DHT22;4551;53.164;8.210;2022-09-06T02:40:10;19.10;99.90
9033;DHT22;4551;53.164;8.210;2022-09-06T02:42:39;19.00;99.90
9033;DHT22;4551;53.164;8.210;2022-09-06T02:45:08;19.00;99.90
9033;DHT22;4551;53.164;8.210;2022-09-06T02:47:38;19.00;99.90
9033;DHT22;4551;53.164;8.210;2022-09-06T02:50:07;19.00;99.90
9033;DHT22;4551;53.164;8.210;2022-09-06T02:52:35;19.00;99.90
9033;DHT22;4551;53.164;8.210;2022-09-06T02:55:04;19.00;99.90
9033;DHT22;4551;53.164;8.210;2022-09-06T02:57:33;18.90;99.90
9033;DHT22;4551;53.164;8.210;2022-09-06T03:00:02;18.90;99.90
9033;DHT22;4551;53.164;8.210;2022-09-06T03:02:30;18.90;99.90
9033;DHT22;4551;53.164;8.210;2022-09-06T03:05:00;18.90;99.90
9033;DHT22;4551;53.164;8.210;2022-09-06T03:07:28;18.90;99.90
9033;DHT22;4551;53.164;8.210;2022-09-06T03:09:57;18.90;99.90
9033;DHT22;4551;53.164;8.210;2022-09-06T03:12:26;18.80;99.90
9033;DHT22;4551;53.164;8.210;2022-09-06T03:14:54;18.80;99.90
9033;DHT22;4551;53.164;8.210;2022-09-06T03:17:22;18.80;99.90
9033;DHT22;4551;53.164;8.210;2022-09-06T03:19:50;18.80;99.90
9033;DHT22;4551;53.164;8.210;2022-09-06T03:22:20;18.80;99.90
9033;DHT22;4551;53.164;8.210;2022-09-06T03:24:48;18.80;99.90
9033;DHT22;4551;53.164;8.210;2022-09-06T03:27:16;18.80;99.90
9033;DHT22;4551;53.164;8.210;2022-09-06T03:29:44;18.80;99.90
9033;DHT22;4551;53.164;8.210;2022-09-06T03:32:13;18.80;99.90
9033;DHT22;4551;53.164;8.210;2022-09-06T03:34:41;18.80;99.90
9033;DHT22;4551;53.164;8.210;2022-09-06T03:37:09;18.80;99.90
9033;DHT22;4551;53.164;8.210;2022-09-06T03:39:38;18.80;99.90
9033;DHT22;4551;53.164;8.210;2022-09-06T03:42:07;18.80;99.90
9033;DHT22;4551;53.164;8.210;2022-09-06T03:44:35;18.70;99.90
9033;DHT22;4551;53.164;8.210;2022-09-06T03:47:04;18.80;99.90
9033;DHT22;4551;53.164;8.210;2022-09-06T03:49:32;18.80;99.90
9033;DHT22;4551;53.164;8.210;2022-09-06T03:52:01;18.80;99.90
9033;DHT22;4551;53.164;8.210;2022-09-06T03:54:29;18.80;99.90
9033;DHT22;4551;53.164;8.210;2022-09-06T03:56:59;18.80;99.90
9033;DHT22;4551;53.164;8.210;2022-09-06T03:59:27;18.80;99.90
9033;DHT22;4551;53.164;8.210;2022-09-06T04:01:55;18.80;99.90
9033;DHT22;4551;53.164;8.210;2022-09-06T04:04:23;18.70;99.90
9033;DHT22;4551;53.164;8.210;2022-09-06T04:06:51;18.80;99.90
9033;DHT22;4551;53.164;8.210;2022-09-06T04:09:20;18.70;99.90
9033;DHT22;4551;53.164;8.210;2022-09-06T04:11:48;18.70;99.90
9033;DHT22;4551;53.164;8.210;2022-09-06T04:14:18;18.70;99.90
9033;DHT22;4551;53.164;8.210;2022-09-06T04:16:46;18.70;99.90
9033;DHT22;4551;53.164;8.210;2022-09-06T04:19:14;18.70;99.90
9033;DHT22;4551;53.164;8.210;2022-09-06T04:21:42;18.70;99.90
9033;DHT22;4551;53.164;8.210;2022-09-06T04:24:10;18.70;99.90
9033;DHT22;4551;53.164;8.210;2022-09-06T04:26:39;18.70;99.90
9033;DHT22;4551;53.164;8.210;2022-09-06T04:29:07;18.70;99.90
9033;DHT22;4551;53.164;8.210;2022-09-06T04:31:36;18.70;99.90
9033;DHT22;4551;53.164;8.210;2022-09-06T04:34:05;18.60;99.90
9033;DHT22;4551;53.164;8.210;2022-09-06T04:36:33;18.70;99.90
9033;DHT22;4551;53.164;8.210;2022-09-06T04:39:01;18.60;99.90
9033;DHT22;4551;53.164;8.210;2022-09-06T04:41:29;18.60;99.90
9033;DHT22;4551;53.164;8.210;2022-09-06T04:43:57;18.60;99.90
9033;DHT22;4551;53.164;8.210;2022-09-06T04:46:27;18.60;99.90
9033;DHT22;4551;53.164;8.210;2022-09-06T04:48:57;18.60;99.90
9033;DHT22;4551;53.164;8.210;2022-09-06T04:51:27;18.60;99.90
9033;DHT22;4551;53.164;8.210;2022-09-06T04:53:55;18.60;99.90
9033;DHT22;4551;53.164;8.210;2022-09-06T04:56:24;18.50;99.90
9033;DHT22;4551;53.164;8.210;2022-09-06T04:58:53;18.50;99.90
9033;DHT22;4551;53.164;8.210;2022-09-06T05:01:22;18.50;99.90
9033;DHT22;4551;53.164;8.210;2022-09-06T05:03:52;18.50;99.90
9033;DHT22;4551;53.164;8.210;2022-09-06T05:06:24;18.60;99.90
9033;DHT22;4551;53.164;8.210;2022-09-06T05:08:52;18.60;99.90
9033;DHT22;4551;53.164;8.210;2022-09-06T05:11:21;18.40;99.90
9033;DHT22;4551;53.164;8.210;2022-09-06T05:13:49;18.30;99.90
9033;DHT22;4551;53.164;8.210;2022-09-06T05:16:17;18.30;99.90
9033;DHT22;4551;53.164;8.210;2022-09-06T05:18:46;18.40;99.90
9033;DHT22;4551;53.164;8.210;2022-09-06T05:21:14;18.40;99.90
9033;DHT22;4551;53.164;8.210;2022-09-06T05:23:44;18.40;99.90
9033;DHT22;4551;53.164;8.210;2022-09-06T05:26:12;18.50;99.90
9033;DHT22;4551;53.164;8.210;2022-09-06T05:28:40;18.50;99.90
9033;DHT22;4551;53.164;8.210;2022-09-06T05:31:09;18.50;99.90
9033;DHT22;4551;53.164;8.210;2022-09-06T05:33:38;18.50;99.90
9033;DHT22;4551;53.164;8.210;2022-09-06T05:36:07;18.50;99.90
9033;DHT22;4551;53.164;8.210;2022-09-06T05:38:35;18.60;99.90
9033;DHT22;4551;53.164;8.210;2022-09-06T05:41:04;18.60;99.90
9033;DHT22;4551;53.164;8.210;2022-09-06T05:43:33;18.70;99.90
9033;DHT22;4551;53.164;8.210;2022-09-06T05:46:01;18.70;99.90
9033;DHT22;4551;53.164;8.210;2022-09-06T05:48:29;18.70;99.90
9033;DHT22;4551;53.164;8.210;2022-09-06T05:51:04;18.80;99.90
9033;DHT22;4551;53.164;8.210;2022-09-06T05:53:34;18.80;99.90
9033;DHT22;4551;53.164;8.210;2022-09-06T05:56:03;18.90;99.90
9033;DHT22;4551;53.164;8.210;2022-09-06T05:58:33;19.00;99.90
9033;DHT22;4551;53.164;8.210;2022-09-06T06:01:12;18.90;99.90
9033;DHT22;4551;53.164;8.210;2022-09-06T06:03:41;18.90;99.90
9033;DHT22;4551;53.164;8.210;2022-09-06T06:06:10;18.90;99.90
9033;DHT22;4551;53.164;8.210;2022-09-06T06:08:38;18.90;99.90
9033;DHT22;4551;53.164;8.210;2022-09-06T06:11:06;18.80;99.90
9033;DHT22;4551;53.164;8.210;2022-09-06T06:13:35;18.70;99.90
9033;DHT22;4551;53.164;8.210;2022-09-06T06:16:06;18.70;99.90
9033;DHT22;4551;53.164;8.210;2022-09-06T06:18:34;18.60;99.90
9033;DHT22;4551;53.164;8.210;2022-09-06T06:21:07;18.50;99.90
9033;DHT22;4551;53.164;8.210;2022-09-06T06:23:35;18.50;99.90
9033;DHT22;4551;53.164;8.210;2022-09-06T06:26:05;18.50;99.90
9033;DHT22;4551;53.164;8.210;2022-09-06T06:28:35;18.30;99.90
9033;DHT22;4551;53.164;8.210;2022-09-06T06:31:05;18.10;99.90
9033;DHT22;4551;53.164;8.210;2022-09-06T06:33:33;18.10;99.90
9033;DHT22;4551;53.164;8.210;2022-09-06T06:36:03;18.00;99.90
9033;DHT22;4551;53.164;8.210;2022-09-06T06:38:33;18.00;99.90
9033;DHT22;4551;53.164;8.210;2022-09-06T06:41:02;17.90;99.90
9033;DHT22;4551;53.164;8.210;2022-09-06T06:43:34;17.90;99.90
9033;DHT22;4551;53.164;8.210;2022-09-06T06:46:04;17.70;99.90
9033;DHT22;4551;53.164;8.210;2022-09-06T06:48:33;17.60;99.90
9033;DHT22;4551;53.164;8.210;2022-09-06T06:51:01;17.50;99.90
9033;DHT22;4551;53.164;8.210;2022-09-06T06:53:30;17.50;99.90
9033;DHT22;4551;53.164;8.210;2022-09-06T06:55:58;17.50;99.90
9033;DHT22;4551;53.164;8.210;2022-09-06T06:58:26;17.60;99.90
9033;DHT22;4551;53.164;8.210;2022-09-06T07:00:56;17.60;99.90
9033;DHT22;4551;53.164;8.210;2022-09-06T07:03:24;17.60;99.90
9033;DHT22;4551;53.164;8.210;2022-09-06T07:05:52;17.70;99.90
9033;DHT22;4551;53.164;8.210;2022-09-06T07:08:36;17.70;99.90
9033;DHT22;4551;53.164;8.210;2022-09-06T07:11:05;17.70;99.90
9033;DHT22;4551;53.164;8.210;2022-09-06T07:13:34;17.80;99.90
9033;DHT22;4551;53.164;8.210;2022-09-06T07:16:11;17.80;99.90
9033;DHT22;4551;53.164;8.210;2022-09-06T07:18:41;17.80;99.90
9033;DHT22;4551;53.164;8.210;2022-09-06T07:21:13;17.90;99.90
9033;DHT22;4551;53.164;8.210;2022-09-06T07:24:02;17.90;99.90
9033;DHT22;4551;53.164;8.210;2022-09-06T07:26:35;18.00;99.90
9033;DHT22;4551;53.164;8.210;2022-09-06T07:29:05;18.00;99.90
9033;DHT22;4551;53.164;8.210;2022-09-06T07:31:37;18.10;99.90
9033;DHT22;4551;53.164;8.210;2022-09-06T07:34:25;18.10;99.90
9033;DHT22;4551;53.164;8.210;2022-09-06T07:36:54;18.10;99.90
9033;DHT22;4551;53.164;8.210;2022-09-06T07:39:22;18.10;99.90
9033;DHT22;4551;53.164;8.210;2022-09-06T07:41:50;18.20;99.90
9033;DHT22;4551;53.164;8.210;2022-09-06T07:44:18;18.20;99.90
9033;DHT22;4551;53.164;8.210;2022-09-06T07:46:48;18.30;99.90
9033;DHT22;4551;53.164;8.210;2022-09-06T07:49:18;18.30;99.90
9033;DHT22;4551;53.164;8.210;2022-09-06T07:51:46;18.30;99.90
9033;DHT22;4551;53.164;8.210;2022-09-06T07:54:15;18.30;99.90
9033;DHT22;4551;53.164;8.210;2022-09-06T07:56:58;18.40;99.90
9033;DHT22;4551;53.164;8.210;2022-09-06T07:59:26;18.40;99.90
9033;DHT22;4551;53.164;8.210;2022-09-06T08:01:56;18.50;99.90
9033;DHT22;4551;53.164;8.210;2022-09-06T08:04:24;18.50;99.90
9033;DHT22;4551;53.164;8.210;2022-09-06T08:06:52;18.50;99.90
9033;DHT22;4551;53.164;8.210;2022-09-06T08:09:43;18.50;99.90
9033;DHT22;4551;53.164;8.210;2022-09-06T08:12:11;18.50;99.90
9033;DHT22;4551;53.164;8.210;2022-09-06T08:14:39;18.60;99.90
9033;DHT22;4551;53.164;8.210;2022-09-06T08:17:08;18.60;99.90
9033;DHT22;4551;53.164;8.210;2022-09-06T08:19:36;18.50;99.90
9033;DHT22;4551;53.164;8.210;2022-09-06T08:22:04;18.60;99.90
9033;DHT22;4551;53.164;8.210;2022-09-06T08:24:33;18.60;99.90
9033;DHT22;4551;53.164;8.210;2022-09-06T08:27:02;18.60;99.90
9033;DHT22;4551;53.164;8.210;2022-09-06T08:29:33;18.60;99.90
9033;DHT22;4551;53.164;8.210;2022-09-06T08:32:02;18.60;99.90
9033;DHT22;4551;53.164;8.210;2022-09-06T08:34:31;18.60;99.90
9033;DHT22;4551;53.164;8.210;2022-09-06T08:36:59;18.50;99.90
9033;DHT22;4551;53.164;8.210;2022-09-06T08:39:27;18.50;99.90
9033;DHT22;4551;53.164;8.210;2022-09-06T08:41:59;18.50;99.90
9033;DHT22;4551;53.164;8.210;2022-09-06T08:44:32;18.50;99.90
9033;DHT22;4551;53.164;8.210;2022-09-06T08:47:21;18.60;99.90
9033;DHT22;4551;53.164;8.210;2022-09-06T08:49:53;18.50;99.90
9033;DHT22;4551;53.164;8.210;2022-09-06T08:52:33;18.50;99.90
9033;DHT22;4551;53.164;8.210;2022-09-06T08:55:30;18.50;99.90
9033;DHT22;4551;53.164;8.210;2022-09-06T08:58:09;18.60;99.90
9033;DHT22;4551;53.164;8.210;2022-09-06T09:00:39;18.60;99.90
9033;DHT22;4551;53.164;8.210;2022-09-06T09:03:11;18.60;99.90
9033;DHT22;4551;53.164;8.210;2022-09-06T09:05:47;18.60;99.90
9033;DHT22;4551;53.164;8.210;2022-09-06T09:08:21;18.60;99.90
9033;DHT22;4551;53.164;8.210;2022-09-06T09:10:55;18.60;99.90
9033;DHT22;4551;53.164;8.210;2022-09-06T09:13:28;18.50;99.90
9033;DHT22;4551;53.164;8.210;2022-09-06T09:15:57;18.60;99.90
9033;DHT22;4551;53.164;8.210;2022-09-06T09:18:28;18.60;99.90
9033;DHT22;4551;53.164;8.210;2022-09-06T09:20:59;18.60;99.90
9033;DHT22;4551;53.164;8.210;2022-09-06T09:23:28;18.60;99.90
9033;DHT22;4551;53.164;8.210;2022-09-06T09:26:00;18.70;99.90
9033;DHT22;4551;53.164;8.210;2022-09-06T09:28:30;18.70;99.90
9033;DHT22;4551;53.164;8.210;2022-09-06T09:30:59;18.60;99.90
9033;DHT22;4551;53.164;8.210;2022-09-06T09:33:29;18.60;99.90
9033;DHT22;4551;53.164;8.210;2022-09-06T09:36:04;18.60;99.90
9033;DHT22;4551;53.164;8.210;2022-09-06T09:38:39;18.60;99.90
9033;DHT22;4551;53.164;8.210;2022-09-06T09:41:08;18.60;99.90
9033;DHT22;4551;53.164;8.210;2022-09-06T09:43:39;18.60;99.90
9033;DHT22;4551;53.164;8.210;2022-09-06T09:49:00;18.60;99.90
9033;DHT22;4551;53.164;8.210;2022-09-06T09:51:31;18.60;99.90
9033;DHT22;4551;53.164;8.210;2022-09-06T09:54:01;18.60;99.90
9033;DHT22;4551;53.164;8.210;2022-09-06T09:56:39;18.70;99.90
9033;DHT22;4551;53.164;8.210;2022-09-06T09:59:21;18.70;99.90
9033;DHT22;4551;53.164;8.210;2022-09-06T10:01:52;18.70;99.90
9033;DHT22;4551;53.164;8.210;2022-09-06T10:04:27;18.70;99.90
9033;DHT22;4551;53.164;8.210;2022-09-06T10:07:15;18.70;99.90
9033;DHT22;4551;53.164;8.210;2022-09-06T10:09:45;18.60;99.90
9033;DHT22;4551;53.164;8.210;2022-09-06T10:12:26;18.70;99.90
9033;DHT22;4551;53.164;8.210;2022-09-06T10:14:55;18.60;99.90
9033;DHT22;4551;53.164;8.210;2022-09-06T10:17:30;18.60;99.90
9033;DHT22;4551;53.164;8.210;2022-09-06T10:20:01;18.70;99.90
9033;DHT22;4551;53.164;8.210;2022-09-06T10:22:42;18.70;99.90
9033;DHT22;4551;53.164;8.210;2022-09-06T10:25:38;18.70;99.90
9033;DHT22;4551;53.164;8.210;2022-09-06T10:28:26;18.70;99.90
9033;DHT22;4551;53.164;8.210;2022-09-06T10:31:17;18.70;99.90
9033;DHT22;4551;53.164;8.210;2022-09-06T10:34:00;18.70;99.90
9033;DHT22;4551;53.164;8.210;2022-09-06T10:36:32;18.70;99.90
9033;DHT22;4551;53.164;8.210;2022-09-06T10:39:09;18.70;99.90
9033;DHT22;4551;53.164;8.210;2022-09-06T10:41:52;18.70;99.90
9033;DHT22;4551;53.164;8.210;2022-09-06T10:44:34;18.80;99.90
9033;DHT22;4551;53.164;8.210;2022-09-06T10:47:11;18.70;99.90
9033;DHT22;4551;53.164;8.210;2022-09-06T10:49:43;18.80;99.90
9033;DHT22;4551;53.164;8.210;2022-09-06T10:52:15;18.90;99.90
9033;DHT22;4551;53.164;8.210;2022-09-06T10:54:47;18.90;99.90
9033;DHT22;4551;53.164;8.210;2022-09-06T10:57:19;19.00;99.90
9033;DHT22;4551;53.164;8.210;2022-09-06T11:00:09;19.00;99.90
9033;DHT22;4551;53.164;8.210;2022-09-06T11:02:43;19.00;99.90
9033;DHT22;4551;53.164;8.210;2022-09-06T11:05:18;19.00;99.90
9033;DHT22;4551;53.164;8.210;2022-09-06T11:08:07;19.10;99.90
9033;DHT22;4551;53.164;8.210;2022-09-06T11:11:02;19.10;99.90
9033;DHT22;4551;53.164;8.210;2022-09-06T11:13:32;19.20;99.90
9033;DHT22;4551;53.164;8.210;2022-09-06T11:16:05;19.20;99.90
9033;DHT22;4551;53.164;8.210;2022-09-06T11:18:41;19.30;99.90
9033;DHT22;4551;53.164;8.210;2022-09-06T11:24:11;19.30;99.90
9033;DHT22;4551;53.164;8.210;2022-09-06T11:26:44;19.30;99.90
9033;DHT22;4551;53.164;8.210;2022-09-06T11:29:23;19.40;99.90
9033;DHT22;4551;53.164;8.210;2022-09-06T11:31:54;19.40;99.90
9033;DHT22;4551;53.164;8.210;2022-09-06T11:34:50;19.60;99.90
9033;DHT22;4551;53.164;8.210;2022-09-06T11:37:24;19.70;99.90
9033;DHT22;4551;53.164;8.210;2022-09-06T11:40:14;19.90;99.90
9033;DHT22;4551;53.164;8.210;2022-09-06T11:43:15;20.00;99.90
9033;DHT22;4551;53.164;8.210;2022-09-06T11:45:46;20.20;99.90
9033;DHT22;4551;53.164;8.210;2022-09-06T11:51:36;20.40;99.90
9033;DHT22;4551;53.164;8.210;2022-09-06T11:54:21;20.60;99.90
9033;DHT22;4551;53.164;8.210;2022-09-06T11:56:56;20.70;99.90
9033;DHT22;4551;53.164;8.210;2022-09-06T11:59:33;21.00;99.90
9033;DHT22;4551;53.164;8.210;2022-09-06T12:02:05;21.10;99.90
9033;DHT22;4551;53.164;8.210;2022-09-06T12:05:14;21.20;99.90
9033;DHT22;4551;53.164;8.210;2022-09-06T12:08:12;21.40;99.90
9033;DHT22;4551;53.164;8.210;2022-09-06T12:10:46;21.60;99.90
9033;DHT22;4551;53.164;8.210;2022-09-06T12:16:17;21.90;99.90
9033;DHT22;4551;53.164;8.210;2022-09-06T12:18:58;22.10;99.90
9033;DHT22;4551;53.164;8.210;2022-09-06T12:24:52;22.50;99.90
9033;DHT22;4551;53.164;8.210;2022-09-06T12:27:21;22.60;99.90
9033;DHT22;4551;53.164;8.210;2022-09-06T12:29:56;22.70;99.90
9033;DHT22;4551;53.164;8.210;2022-09-06T12:32:30;22.70;99.90
9033;DHT22;4551;53.164;8.210;2022-09-06T12:35:04;22.70;99.90
9033;DHT22;4551;53.164;8.210;2022-09-06T12:37:59;22.80;99.90
9033;DHT22;4551;53.164;8.210;2022-09-06T12:40:29;22.80;99.90
9033;DHT22;4551;53.164;8.210;2022-09-06T12:42:59;22.90;99.90
9033;DHT22;4551;53.164;8.210;2022-09-06T12:45:29;22.90;99.90
9033;DHT22;4551;53.164;8.210;2022-09-06T12:48:08;23.00;99.90
9033;DHT22;4551;53.164;8.210;2022-09-06T12:50:37;23.00;99.90
9033;DHT22;4551;53.164;8.210;2022-09-06T12:53:17;23.20;99.90
9033;DHT22;4551;53.164;8.210;2022-09-06T12:56:02;23.50;99.90
9033;DHT22;4551;53.164;8.210;2022-09-06T12:58:31;23.70;99.90
9033;DHT22;4551;53.164;8.210;2022-09-06T13:01:06;23.80;99.90
9033;DHT22;4551;53.164;8.210;2022-09-06T13:03:39;24.00;99.90
9033;DHT22;4551;53.164;8.210;2022-09-06T13:06:11;24.30;99.90
9033;DHT22;4551;53.164;8.210;2022-09-06T13:08:46;24.50;99.90
9033;DHT22;4551;53.164;8.210;2022-09-06T13:11:19;24.60;99.90
9033;DHT22;4551;53.164;8.210;2022-09-06T13:13:51;24.90;99.90
9033;DHT22;4551;53.164;8.210;2022-09-06T13:16:22;25.20;99.90
9033;DHT22;4551;53.164;8.210;2022-09-06T13:18:52;25.30;99.90
9033;DHT22;4551;53.164;8.210;2022-09-06T13:21:31;25.60;99.90
9033;DHT22;4551;53.164;8.210;2022-09-06T13:24:00;25.90;99.90
9033;DHT22;4551;53.164;8.210;2022-09-06T13:26:44;26.10;99.90
9033;DHT22;4551;53.164;8.210;2022-09-06T13:29:21;26.30;99.90
9033;DHT22;4551;53.164;8.210;2022-09-06T13:31:51;26.50;99.90
9033;DHT22;4551;53.164;8.210;2022-09-06T13:34:22;26.80;99.90
9033;DHT22;4551;53.164;8.210;2022-09-06T13:36:52;27.10;99.90
9033;DHT22;4551;53.164;8.210;2022-09-06T13:39:31;27.40;99.90
9033;DHT22;4551;53.164;8.210;2022-09-06T13:42:01;27.60;99.90
9033;DHT22;4551;53.164;8.210;2022-09-06T13:44:31;28.00;99.90
9033;DHT22;4551;53.164;8.210;2022-09-06T13:47:00;28.20;99.90
9033;DHT22;4551;53.164;8.210;2022-09-06T13:49:30;28.30;99.90
9033;DHT22;4551;53.164;8.210;2022-09-06T13:52:00;28.50;99.90
9033;DHT22;4551;53.164;8.210;2022-09-06T13:54:31;28.70;99.90
9033;DHT22;4551;53.164;8.210;2022-09-06T13:57:00;29.00;99.90
9033;DHT22;4551;53.164;8.210;2022-09-06T13:59:29;29.30;99.90
9033;DHT22;4551;53.164;8.210;2022-09-06T14:02:00;29.50;99.90
9033;DHT22;4551;53.164;8.210;2022-09-06T14:04:30;29.70;99.90
9033;DHT22;4551;53.164;8.210;2022-09-06T14:06:58;29.80;99.90
9033;DHT22;4551;53.164;8.210;2022-09-06T14:09:26;30.10;99.90
9033;DHT22;4551;53.164;8.210;2022-09-06T14:11:55;30.70;99.90
9033;DHT22;4551;53.164;8.210;2022-09-06T14:14:24;30.70;99.90
9033;DHT22;4551;53.164;8.210;2022-09-06T14:16:52;31.10;99.90
9033;DHT22;4551;53.164;8.210;2022-09-06T14:19:20;31.30;99.90
9033;DHT22;4551;53.164;8.210;2022-09-06T14:21:50;31.60;99.90
9033;DHT22;4551;53.164;8.210;2022-09-06T14:24:18;32.10;99.90
9033;DHT22;4551;53.164;8.210;2022-09-06T14:26:46;32.60;99.90
9033;DHT22;4551;53.164;8.210;2022-09-06T14:29:14;32.90;99.90
9033;DHT22;4551;53.164;8.210;2022-09-06T14:31:43;33.10;99.90
9033;DHT22;4551;53.164;8.210;2022-09-06T14:34:11;32.90;99.90
9033;DHT22;4551;53.164;8.210;2022-09-06T14:36:39;32.80;99.90
9033;DHT22;4551;53.164;8.210;2022-09-06T14:39:09;32.60;99.90
9033;DHT22;4551;53.164;8.210;2022-09-06T14:41:37;32.40;99.90
9033;DHT22;4551;53.164;8.210;2022-09-06T14:44:08;32.10;99.90
9033;DHT22;4551;53.164;8.210;2022-09-06T14:46:36;32.10;99.90
9033;DHT22;4551;53.164;8.210;2022-09-06T14:49:07;32.10;99.90
9033;DHT22;4551;53.164;8.210;2022-09-06T14:51:36;32.10;99.90
9033;DHT22;4551;53.164;8.210;2022-09-06T14:54:08;32.20;99.90
9033;DHT22;4551;53.164;8.210;2022-09-06T14:56:38;32.30;99.90
9033;DHT22;4551;53.164;8.210;2022-09-06T14:59:07;32.30;99.90
9033;DHT22;4551;53.164;8.210;2022-09-06T15:01:36;32.30;99.90
9033;DHT22;4551;53.164;8.210;2022-09-06T15:04:08;32.30;99.90
9033;DHT22;4551;53.164;8.210;2022-09-06T15:06:37;32.20;99.90
9033;DHT22;4551;53.164;8.210;2022-09-06T15:09:11;32.10;99.90
9033;DHT22;4551;53.164;8.210;2022-09-06T15:11:42;32.10;99.90
9033;DHT22;4551;53.164;8.210;2022-09-06T15:14:13;32.10;99.90
9033;DHT22;4551;53.164;8.210;2022-09-06T15:16:43;32.10;99.90
9033;DHT22;4551;53.164;8.210;2022-09-06T15:19:11;32.10;99.90
9033;DHT22;4551;53.164;8.210;2022-09-06T15:21:40;32.20;99.90
9033;DHT22;4551;53.164;8.210;2022-09-06T15:24:08;32.10;99.90
9033;DHT22;4551;53.164;8.210;2022-09-06T15:26:40;32.00;99.90
9033;DHT22;4551;53.164;8.210;2022-09-06T15:29:09;31.90;99.90
9033;DHT22;4551;53.164;8.210;2022-09-06T15:31:38;31.90;99.90
9033;DHT22;4551;53.164;8.210;2022-09-06T15:34:06;31.90;99.90
9033;DHT22;4551;53.164;8.210;2022-09-06T15:36:36;31.50;99.90
9033;DHT22;4551;53.164;8.210;2022-09-06T15:39:04;32.10;99.90
9033;DHT22;4551;53.164;8.210;2022-09-06T15:41:34;32.10;99.90
9033;DHT22;4551;53.164;8.210;2022-09-06T15:44:07;32.10;99.90
9033;DHT22;4551;53.164;8.210;2022-09-06T15:46:46;32.10;99.90
9033;DHT22;4551;53.164;8.210;2022-09-06T15:49:16;32.10;99.90
9033;DHT22;4551;53.164;8.210;2022-09-06T15:51:45;32.10;99.90
9033;DHT22;4551;53.164;8.210;2022-09-06T15:54:15;32.10;99.90
9033;DHT22;4551;53.164;8.210;2022-09-06T15:56:44;32.10;99.90
9033;DHT22;4551;53.164;8.210;2022-09-06T15:59:14;32.00;99.90
9033;DHT22;4551;53.164;8.210;2022-09-06T16:01:42;31.90;99.90
9033;DHT22;4551;53.164;8.210;2022-09-06T16:04:11;31.90;99.90
9033;DHT22;4551;53.164;8.210;2022-09-06T16:06:40;31.90;99.90
9033;DHT22;4551;53.164;8.210;2022-09-06T16:09:10;31.80;99.90
9033;DHT22;4551;53.164;8.210;2022-09-06T16:11:40;31.80;99.90
9033;DHT22;4551;53.164;8.210;2022-09-06T16:14:10;31.80;99.90
9033;DHT22;4551;53.164;8.210;2022-09-06T16:16:41;31.80;99.90
9033;DHT22;4551;53.164;8.210;2022-09-06T16:19:11;31.70;99.90
9033;DHT22;4551;53.164;8.210;2022-09-06T16:21:40;31.60;99.90
9033;DHT22;4551;53.164;8.210;2022-09-06T16:24:11;31.50;99.90
9033;DHT22;4551;53.164;8.210;2022-09-06T16:26:41;31.50;99.90
9033;DHT22;4551;53.164;8.210;2022-09-06T16:29:11;31.40;99.90
9033;DHT22;4551;53.164;8.210;2022-09-06T16:31:41;31.30;99.90
9033;DHT22;4551;53.164;8.210;2022-09-06T16:34:11;31.10;99.90
9033;DHT22;4551;53.164;8.210;2022-09-06T16:36:39;31.10;99.90
9033;DHT22;4551;53.164;8.210;2022-09-06T16:39:08;30.90;99.90
9033;DHT22;4551;53.164;8.210;2022-09-06T16:41:39;30.80;99.90
9033;DHT22;4551;53.164;8.210;2022-09-06T16:44:09;30.60;99.90
9033;DHT22;4551;53.164;8.210;2022-09-06T16:46:43;30.50;99.90
9033;DHT22;4551;53.164;8.210;2022-09-06T16:49:12;30.40;99.90